createdAt,value
2023-04-08T00:00:21.424Z,102156.00
2023-04-08T00:02:48.292Z,102150.66
2023-04-08T00:05:15.255Z,102158.53
2023-04-08T00:07:42.014Z,102153.19
2023-04-08T00:10:09.378Z,102155.13
2023-04-08T00:12:36.686Z,102154.06
2023-04-08T00:15:03.789Z,102153.44
2023-04-08T00:17:33.069Z,102157.94
2023-04-08T00:20:00.541Z,102165.47
2023-04-08T00:22:27.435Z,102159.03
2023-04-08T00:24:54.414Z,102162.06
2023-04-08T00:27:21.413Z,102160.13
2023-04-08T00:29:48.498Z,102162.91
2023-04-08T00:32:15.846Z,102155.63
2023-04-08T00:34:43.640Z,102156.47
2023-04-08T00:37:10.768Z,102157.00
2023-04-08T00:39:37.918Z,102154.19
2023-04-08T00:42:04.964Z,102164.00
2023-04-08T00:44:31.870Z,102157.56
2023-04-08T00:46:58.895Z,102160.34
2023-04-08T00:49:26.460Z,102159.50
2023-04-08T00:51:55.808Z,102164.50
2023-04-08T00:54:22.756Z,102163.91
2023-04-08T00:56:49.690Z,102169.47
2023-04-08T00:59:17.983Z,102168.16
2023-04-08T01:01:49.443Z,102168.63
2023-04-08T01:04:16.935Z,102159.16
2023-04-08T01:06:47.263Z,102160.03
2023-04-08T01:09:14.114Z,102156.63
2023-04-08T01:11:43.393Z,102166.97
2023-04-08T01:14:12.367Z,102167.53
2023-04-08T01:16:41.221Z,102161.97
2023-04-08T01:19:10.762Z,102162.19
2023-04-08T01:21:38.307Z,102163.56
2023-04-08T01:24:08.333Z,102160.16
2023-04-08T01:26:35.957Z,102165.25
2023-04-08T01:29:03.368Z,102163.31
2023-04-08T01:31:30.962Z,102161.88
2023-04-08T01:33:58.011Z,102159.94
2023-04-08T01:36:26.594Z,102164.94
2023-04-08T01:38:53.620Z,102164.41
2023-04-08T01:41:21.645Z,102163.56
2023-04-08T01:43:49.102Z,102159.94
2023-04-08T01:46:16.395Z,102159.06
2023-04-08T01:48:43.738Z,102162.63
2023-04-08T01:51:11.889Z,102163.22
2023-04-08T01:53:38.889Z,102171.31
2023-04-08T01:56:06.859Z,102173.78
2023-04-08T01:58:38.789Z,102178.25
2023-04-08T02:01:10.628Z,102168.19
2023-04-08T02:03:37.987Z,102173.53
2023-04-08T02:06:05.725Z,102167.00
2023-04-08T02:08:33.802Z,102172.91
2023-04-08T02:11:00.650Z,102165.69
2023-04-08T02:13:28.086Z,102164.81
2023-04-08T02:15:58.144Z,102162.88
2023-04-08T02:18:27.953Z,102169.81
2023-04-08T02:20:59.157Z,102162.53
2023-04-08T02:23:29.648Z,102153.91
2023-04-08T02:25:57.092Z,102156.47
2023-04-08T02:28:23.967Z,102161.78
2023-04-08T02:30:52.017Z,102159.50
2023-04-08T02:33:20.703Z,102161.66
2023-04-08T02:35:48.765Z,102160.84
2023-04-08T02:38:16.123Z,102156.09
2023-04-08T02:40:43.008Z,102165.59
2023-04-08T02:43:09.818Z,102164.22
2023-04-08T02:45:39.395Z,102176.13
2023-04-08T02:48:06.617Z,102170.56
2023-04-08T02:50:33.717Z,102172.25
2023-04-08T02:53:00.527Z,102172.81
2023-04-08T02:55:27.330Z,102178.69
2023-04-08T02:57:54.133Z,102182.31
2023-04-08T03:00:20.962Z,102171.75
2023-04-08T03:02:48.012Z,102176.13
2023-04-08T03:05:16.613Z,102182.78
2023-04-08T03:07:43.409Z,102188.38
2023-04-08T03:10:10.370Z,102182.78
2023-04-08T03:12:37.166Z,102189.22
2023-04-08T03:15:04.379Z,102188.88
2023-04-08T03:17:34.066Z,102190.81
2023-04-08T03:20:01.596Z,102198.09
2023-04-08T03:22:28.457Z,102192.28
2023-04-08T03:24:55.232Z,102191.91
2023-04-08T03:27:22.195Z,102198.09
2023-04-08T03:29:49.018Z,102201.13
2023-04-08T03:32:16.240Z,102200.53
2023-04-08T03:34:43.073Z,102201.41
2023-04-08T03:37:09.939Z,102206.69
2023-04-08T03:39:36.750Z,102206.13
2023-04-08T03:42:03.911Z,102213.13
2023-04-08T03:44:30.874Z,102213.38
2023-04-08T03:46:59.938Z,102213.63
2023-04-08T03:49:26.794Z,102225.38
2023-04-08T03:51:53.751Z,102219.56
2023-04-08T03:54:20.723Z,102217.00
2023-04-08T03:56:49.799Z,102220.31
2023-04-08T03:59:19.046Z,102228.44
2023-04-08T04:01:46.664Z,102225.03
2023-04-08T04:04:14.030Z,102232.88
2023-04-08T04:06:40.979Z,102235.09
2023-04-08T04:09:07.761Z,102235.66
2023-04-08T04:11:35.957Z,102232.53
2023-04-08T04:14:03.136Z,102237.28
2023-04-08T04:16:32.809Z,102232.31
2023-04-08T04:19:00.138Z,102226.97
2023-04-08T04:21:27.484Z,102233.16
2023-04-08T04:23:54.392Z,102229.75
2023-04-08T04:26:21.451Z,102237.03
2023-04-08T04:28:48.745Z,102235.94
2023-04-08T04:31:19.060Z,102237.03
2023-04-08T04:33:45.855Z,102239.47
2023-04-08T04:36:12.716Z,102240.91
2023-04-08T04:38:39.495Z,102247.00
2023-04-08T04:41:06.500Z,102245.28
2023-04-08T04:43:33.314Z,102249.78
2023-04-08T04:46:00.948Z,102246.13
2023-04-08T04:48:30.176Z,102248.69
2023-04-08T04:50:57.447Z,102255.94
2023-04-08T04:53:24.393Z,102254.75
2023-04-08T04:55:51.813Z,102253.06
2023-04-08T04:58:19.454Z,102251.72
2023-04-08T05:00:47.073Z,102255.13
2023-04-08T05:03:14.350Z,102268.22
2023-04-08T05:05:42.016Z,102266.75
2023-04-08T05:08:08.905Z,102266.84
2023-04-08T05:10:35.736Z,102262.88
2023-04-08T05:13:02.605Z,102257.78
2023-04-08T05:15:29.587Z,102267.00
2023-04-08T05:17:56.457Z,102272.09
2023-04-08T05:20:23.358Z,102274.03
2023-04-08T05:22:52.424Z,102272.94
2023-04-08T05:25:19.421Z,102272.59
2023-04-08T05:27:47.154Z,102276.19
2023-04-08T05:30:16.256Z,102276.81
2023-04-08T05:32:43.185Z,102278.75
2023-04-08T05:35:10.451Z,102277.66
2023-04-08T05:37:37.313Z,102289.31
2023-04-08T05:40:04.544Z,102289.56
2023-04-08T05:42:32.445Z,102294.28
2023-04-08T05:44:59.380Z,102292.34
2023-04-08T05:47:26.328Z,102290.63
2023-04-08T05:49:53.328Z,102295.13
2023-04-08T05:52:20.385Z,102298.41
2023-04-08T05:54:47.710Z,102299.25
2023-04-08T05:57:14.526Z,102300.34
2023-04-08T05:59:41.442Z,102295.38
2023-04-08T06:02:08.392Z,102309.31
2023-04-08T06:04:35.556Z,102308.44
2023-04-08T06:07:04.721Z,102309.31
2023-04-08T06:09:34.801Z,102312.94
2023-04-08T06:12:01.720Z,102311.84
2023-04-08T06:14:28.627Z,102312.94
2023-04-08T06:16:57.897Z,102313.19
2023-04-08T06:19:25.146Z,102317.66
2023-04-08T06:21:51.978Z,102318.75
2023-04-08T06:24:18.925Z,102320.47
2023-04-08T06:26:45.869Z,102319.59
2023-04-08T06:29:12.732Z,102327.13
2023-04-08T06:31:39.728Z,102323.75
2023-04-08T06:34:08.851Z,102316.81
2023-04-08T06:36:35.623Z,102331.88
2023-04-08T06:39:02.540Z,102328.22
2023-04-08T06:41:29.412Z,102324.59
2023-04-08T06:43:57.257Z,102327.38
2023-04-08T06:46:24.176Z,102331.03
2023-04-08T06:48:51.661Z,102330.41
2023-04-08T06:51:18.841Z,102342.19
2023-04-08T06:53:45.717Z,102342.41
2023-04-08T06:56:14.881Z,102343.63
2023-04-08T06:58:41.675Z,102341.56
2023-04-08T07:01:08.625Z,102340.72
2023-04-08T07:03:35.889Z,102334.03
2023-04-08T07:06:03.541Z,102333.19
2023-04-08T07:08:30.421Z,102345.19
2023-04-08T07:10:57.246Z,102341.31
2023-04-08T07:13:24.210Z,102345.81
2023-04-08T07:15:51.358Z,102351.38
2023-04-08T07:18:18.232Z,102361.06
2023-04-08T07:20:45.028Z,102354.66
2023-04-08T07:23:11.873Z,102365.78
2023-04-08T07:25:38.802Z,102363.84
2023-04-08T07:28:05.765Z,102368.13
2023-04-08T07:30:32.773Z,102361.91
2023-04-08T07:33:01.105Z,102373.06
2023-04-08T07:35:32.184Z,102372.84
2023-04-08T07:37:59.076Z,102374.78
2023-04-08T07:40:26.087Z,102366.66
2023-04-08T07:42:55.190Z,102383.72
2023-04-08T07:45:24.322Z,102381.44
2023-04-08T07:47:51.282Z,102386.78
2023-04-08T07:50:18.224Z,102384.72
2023-04-08T07:52:45.171Z,102385.94
2023-04-08T07:55:12.241Z,102387.63
2023-04-08T07:57:39.369Z,102386.78
2023-04-08T08:00:07.562Z,102395.16
2023-04-08T08:02:36.940Z,102390.41
2023-04-08T08:05:03.974Z,102388.72
2023-04-08T08:07:31.242Z,102399.88
2023-04-08T08:09:58.122Z,102395.38
2023-04-08T08:12:24.984Z,102404.59
2023-04-08T08:14:52.628Z,102405.81
2023-04-08T08:17:19.697Z,102397.94
2023-04-08T08:19:46.540Z,102406.28
2023-04-08T08:22:16.648Z,102407.38
2023-04-08T08:24:43.635Z,102408.22
2023-04-08T08:27:11.634Z,102405.44
2023-04-08T08:29:38.878Z,102405.69
2023-04-08T08:32:05.820Z,102407.97
2023-04-08T08:34:32.694Z,102409.94
2023-04-08T08:36:59.692Z,102416.34
2023-04-08T08:39:26.782Z,102417.44
2023-04-08T08:41:53.853Z,102414.16
2023-04-08T08:44:20.792Z,102420.81
2023-04-08T08:46:48.535Z,102420.81
2023-04-08T08:49:15.788Z,102412.22
2023-04-08T08:51:44.216Z,102416.09
2023-04-08T08:54:11.125Z,102423.97
2023-04-08T08:56:38.035Z,102423.38
2023-04-08T08:59:05.041Z,102428.09
2023-04-08T09:01:33.097Z,102423.38
2023-04-08T09:04:03.587Z,102428.00
2023-04-08T09:06:31.413Z,102429.31
2023-04-08T09:08:58.628Z,102429.09
2023-04-08T09:11:26.582Z,102417.94
2023-04-08T09:13:53.462Z,102428.81
2023-04-08T09:16:20.563Z,102428.59
2023-04-08T09:18:49.571Z,102423.63
2023-04-08T09:21:17.928Z,102417.44
2023-04-08T09:23:46.170Z,102419.72
2023-04-08T09:26:13.555Z,102420.22
2023-04-08T09:28:41.093Z,102422.50
2023-04-08T09:31:11.194Z,102422.78
2023-04-08T09:33:38.095Z,102421.69
2023-04-08T09:36:05.618Z,102421.78
2023-04-08T09:38:35.045Z,102429.56
2023-04-08T09:41:07.372Z,102424.84
2023-04-08T09:43:38.971Z,102423.13
2023-04-08T09:46:08.160Z,102417.91
2023-04-08T09:48:39.972Z,102425.19
2023-04-08T09:51:07.048Z,102427.75
2023-04-08T09:53:36.934Z,102419.09
2023-04-08T09:56:07.686Z,102430.88
2023-04-08T09:58:39.485Z,102427.25
2023-04-08T10:01:08.478Z,102437.91
2023-04-08T10:03:38.765Z,102430.66
2023-04-08T10:06:08.536Z,102431.25
2023-04-08T10:08:36.246Z,102434.88
2023-04-08T10:11:03.204Z,102431.34
2023-04-08T10:13:30.461Z,102436.94
2023-04-08T10:16:00.754Z,102432.78
2023-04-08T10:18:30.754Z,102428.31
2023-04-08T10:20:58.022Z,102423.59
2023-04-08T10:23:44.944Z,102430.00
2023-04-08T10:26:30.766Z,102433.66
2023-04-08T10:29:17.677Z,102425.28
2023-04-08T10:31:46.565Z,102428.19
2023-04-08T10:34:18.067Z,102425.38
2023-04-08T10:36:45.838Z,102431.59
2023-04-08T10:39:13.828Z,102423.84
2023-04-08T10:41:44.000Z,102421.28
2023-04-08T10:44:13.922Z,102421.66
2023-04-08T10:46:41.759Z,102410.25
2023-04-08T10:49:09.238Z,102407.19
2023-04-08T10:51:38.680Z,102409.75
2023-04-08T10:54:07.767Z,102407.19
2023-04-08T10:56:36.010Z,102402.97
2023-04-08T10:59:03.836Z,102397.97
2023-04-08T11:01:38.871Z,102396.56
2023-04-08T11:04:09.344Z,102393.53
2023-04-08T11:06:37.780Z,102397.97
2023-04-08T11:09:04.761Z,102386.25
2023-04-08T11:11:32.313Z,102391.94
2023-04-08T11:13:59.367Z,102389.63
2023-04-08T11:16:28.414Z,102384.88
2023-04-08T11:18:55.996Z,102381.00
2023-04-08T11:21:24.262Z,102384.66
2023-04-08T11:23:52.343Z,102381.00
2023-04-08T11:26:20.299Z,102390.00
2023-04-08T11:28:49.575Z,102386.34
2023-04-08T11:31:16.690Z,102389.72
2023-04-08T11:33:47.142Z,102390.56
2023-04-08T11:36:14.268Z,102383.06
2023-04-08T11:38:42.105Z,102384.13
2023-04-08T11:41:10.020Z,102388.41
2023-04-08T11:43:37.105Z,102393.47
2023-04-08T11:46:11.847Z,102393.22
2023-04-08T11:48:39.404Z,102388.59
2023-04-08T11:51:09.488Z,102392.50
2023-04-08T11:53:38.256Z,102388.09
2023-04-08T11:56:08.294Z,102387.50
2023-04-08T11:58:38.265Z,102384.69
2023-04-08T12:01:05.182Z,102376.94
2023-04-08T12:03:32.418Z,102376.31
2023-04-08T12:05:59.989Z,102372.34
2023-04-08T12:08:27.000Z,102368.47
2023-04-08T12:10:53.882Z,102362.66
2023-04-08T12:13:21.287Z,102361.03
2023-04-08T12:15:51.985Z,102367.81
2023-04-08T12:18:19.017Z,102368.91
2023-04-08T12:20:45.952Z,102369.16
2023-04-08T12:23:13.064Z,102366.34
2023-04-08T12:25:40.140Z,102367.94
2023-04-08T12:28:07.175Z,102369.91
2023-04-08T12:30:34.222Z,102367.94
2023-04-08T12:33:01.179Z,102364.81
2023-04-08T12:35:28.246Z,102360.19
2023-04-08T12:37:55.151Z,102354.94
2023-04-08T12:40:22.033Z,102344.13
2023-04-08T12:42:48.927Z,102350.31
2023-04-08T12:45:16.229Z,102349.97
2023-04-08T12:47:43.359Z,102352.25
2023-04-08T12:50:10.720Z,102357.50
2023-04-08T12:52:37.594Z,102344.13
2023-04-08T12:55:04.912Z,102346.91
2023-04-08T12:57:32.350Z,102347.25
2023-04-08T12:59:59.246Z,102343.72
2023-04-08T13:02:27.617Z,102337.03
2023-04-08T13:04:55.646Z,102340.34
2023-04-08T13:07:22.775Z,102344.00
2023-04-08T13:09:49.633Z,102347.03
2023-04-08T13:12:16.637Z,102338.66
2023-04-08T13:14:43.568Z,102342.03
2023-04-08T13:17:10.851Z,102351.75
2023-04-08T13:19:37.772Z,102341.09
2023-04-08T13:22:04.697Z,102343.03
2023-04-08T13:24:31.702Z,102348.72
2023-04-08T13:26:58.662Z,102344.56
2023-04-08T13:29:25.579Z,102336.81
2023-04-08T13:31:53.713Z,102335.72
2023-04-08T13:34:20.792Z,102336.91
2023-04-08T13:36:47.715Z,102342.72
2023-04-08T13:39:14.651Z,102333.50
2023-04-08T13:41:41.765Z,102327.91
2023-04-08T13:44:08.989Z,102328.44
2023-04-08T13:46:36.022Z,102327.56
2023-04-08T13:49:03.539Z,102338.75
2023-04-08T13:51:31.819Z,102338.75
2023-04-08T13:53:58.693Z,102325.88
2023-04-08T13:56:25.893Z,102328.94
2023-04-08T13:58:57.337Z,102322.75
2023-04-08T14:01:24.896Z,102327.25
2023-04-08T14:03:51.965Z,102321.91
2023-04-08T14:06:18.803Z,102321.78
2023-04-08T14:08:45.776Z,102317.06
2023-04-08T14:11:13.027Z,102313.69
2023-04-08T14:13:40.220Z,102314.28
2023-04-08T14:16:07.193Z,102302.25
2023-04-08T14:18:34.093Z,102307.09
2023-04-08T14:21:01.221Z,102303.09
2023-04-08T14:23:28.358Z,102296.19
2023-04-08T14:25:55.326Z,102297.28
2023-04-08T14:28:22.242Z,102292.28
2023-04-08T14:30:49.314Z,102297.63
2023-04-08T14:33:16.475Z,102289.59
2023-04-08T14:35:43.460Z,102289.59
2023-04-08T14:38:10.420Z,102289.59
2023-04-08T14:40:37.904Z,102284.50
2023-04-08T14:43:05.544Z,102294.31
2023-04-08T14:45:33.455Z,102286.22
2023-04-08T14:48:02.929Z,102287.88
2023-04-08T14:50:30.915Z,102292.88
2023-04-08T14:52:57.903Z,102289.84
2023-04-08T14:55:25.627Z,102291.19
2023-04-08T14:57:52.558Z,102287.81
2023-04-08T15:00:19.518Z,102284.19
2023-04-08T15:02:46.666Z,102278.59
2023-04-08T15:05:13.756Z,102278.84
2023-04-08T15:07:40.989Z,102270.22
2023-04-08T15:10:08.385Z,102274.44
2023-04-08T15:12:35.358Z,102270.56
2023-04-08T15:15:02.680Z,102269.47
2023-04-08T15:17:29.619Z,102268.44
2023-04-08T15:19:56.748Z,102268.44
2023-04-08T15:22:23.639Z,102275.97
2023-04-08T15:24:50.685Z,102279.03
2023-04-08T15:27:17.777Z,102276.22
2023-04-08T15:29:45.014Z,102274.78
2023-04-08T15:32:12.429Z,102275.63
2023-04-08T15:34:39.458Z,102278.69
2023-04-08T15:37:06.721Z,102278.06
2023-04-08T15:39:33.579Z,102269.94
2023-04-08T15:42:01.720Z,102274.19
2023-04-08T15:44:31.652Z,102273.34
2023-04-08T15:46:58.810Z,102269.47
2023-04-08T15:49:26.079Z,102270.88
2023-04-08T15:51:54.102Z,102265.91
2023-04-08T15:54:21.502Z,102260.06
2023-04-08T15:56:48.367Z,102263.13
2023-04-08T15:59:15.246Z,102260.31
2023-04-08T16:01:42.371Z,102268.19
2023-04-08T16:04:09.494Z,102263.69
2023-04-08T16:06:36.984Z,102262.84
2023-04-08T16:09:03.948Z,102263.44
2023-04-08T16:11:31.002Z,102263.44
2023-04-08T16:13:58.320Z,102252.03
2023-04-08T16:16:25.283Z,102264.03
2023-04-08T16:18:53.038Z,102269.03
2023-04-08T16:21:20.120Z,102276.31
2023-04-08T16:23:47.317Z,102269.88
2023-04-08T16:26:14.689Z,102275.13
2023-04-08T16:28:41.516Z,102266.47
2023-04-08T16:31:08.549Z,102264.22
2023-04-08T16:33:35.708Z,102266.16
2023-04-08T16:36:04.568Z,102259.97
2023-04-08T16:38:31.583Z,102264.44
2023-04-08T16:40:59.084Z,102264.97
2023-04-08T16:43:26.769Z,102271.97
2023-04-08T16:45:56.511Z,102269.47
2023-04-08T16:48:23.620Z,102262.19
2023-04-08T16:50:50.674Z,102261.56
2023-04-08T16:53:17.682Z,102268.59
2023-04-08T16:55:44.871Z,102264.97
2023-04-08T16:58:11.968Z,102266.66
2023-04-08T17:00:39.269Z,102267.75
2023-04-08T17:03:06.627Z,102269.47
2023-04-08T17:05:36.196Z,102265.47
2023-04-08T17:08:03.611Z,102267.16
2023-04-08T17:10:33.968Z,102269.69
2023-04-08T17:13:00.882Z,102269.94
2023-04-08T17:15:27.858Z,102269.69
2023-04-08T17:17:54.779Z,102268.00
2023-04-08T17:20:22.615Z,102271.06
2023-04-08T17:22:52.137Z,102275.53
2023-04-08T17:25:19.169Z,102276.66
2023-04-08T17:27:46.144Z,102272.72
2023-04-08T17:30:13.477Z,102271.06
2023-04-08T17:32:40.444Z,102264.63
2023-04-08T17:35:07.772Z,102264.88
2023-04-08T17:37:34.689Z,102262.09
2023-04-08T17:40:01.808Z,102259.91
2023-04-08T17:42:28.710Z,102259.06
2023-04-08T17:44:56.378Z,102258.19
2023-04-08T17:47:23.444Z,102261.00
2023-04-08T17:49:50.526Z,102262.09
2023-04-08T17:52:17.509Z,102266.81
2023-04-08T17:54:44.460Z,102264.88
2023-04-08T17:57:11.431Z,102267.66
2023-04-08T17:59:38.337Z,102261.22
2023-04-08T18:02:05.473Z,102261.00
2023-04-08T18:04:34.707Z,102261.56
2023-04-08T18:07:04.193Z,102267.91
2023-04-08T18:09:33.343Z,102270.22
2023-04-08T18:12:00.291Z,102272.41
2023-04-08T18:14:28.837Z,102272.91
2023-04-08T18:16:55.832Z,102274.34
2023-04-08T18:19:24.966Z,102284.66
2023-04-08T18:21:51.921Z,102279.44
2023-04-08T18:24:19.471Z,102281.00
2023-04-08T18:26:51.729Z,102281.63
2023-04-08T18:29:21.910Z,102285.16
2023-04-08T18:31:48.922Z,102285.50
2023-04-08T18:34:15.844Z,102286.59
2023-04-08T18:36:42.747Z,102289.38
2023-04-08T18:39:09.713Z,102290.25
2023-04-08T18:41:37.685Z,102290.50
2023-04-08T18:44:04.602Z,102286.13
2023-04-08T18:46:31.816Z,102297.53
2023-04-08T18:48:59.475Z,102296.44
2023-04-08T18:51:27.001Z,102287.53
2023-04-08T18:53:54.093Z,102297.75
2023-04-08T18:56:21.587Z,102293.53
2023-04-08T18:58:49.981Z,102294.72
2023-04-08T19:01:17.180Z,102292.44
2023-04-08T19:03:44.167Z,102294.72
2023-04-08T19:06:12.635Z,102291.59
2023-04-08T19:08:41.764Z,102299.38
2023-04-08T19:11:08.608Z,102301.31
2023-04-08T19:13:35.683Z,102298.50
2023-04-08T19:16:02.692Z,102300.81
2023-04-08T19:18:29.636Z,102301.06
2023-04-08T19:20:56.511Z,102302.16
2023-04-08T19:23:23.410Z,102300.81
2023-04-08T19:25:51.174Z,102308.34
2023-04-08T19:28:18.074Z,102306.88
2023-04-08T19:30:45.058Z,102315.03
2023-04-08T19:33:12.028Z,102312.47
2023-04-08T19:35:39.088Z,102314.44
2023-04-08T19:38:08.657Z,102307.75
2023-04-08T19:40:35.690Z,102306.41
2023-04-08T19:43:02.766Z,102311.16
2023-04-08T19:45:29.692Z,102312.22
2023-04-08T19:47:56.628Z,102319.50
2023-04-08T19:50:23.742Z,102309.44
2023-04-08T19:52:50.607Z,102316.72
2023-04-08T19:55:17.557Z,102319.75
2023-04-08T19:57:44.466Z,102320.84
2023-04-08T20:00:14.011Z,102321.47
2023-04-08T20:02:41.482Z,102314.19
2023-04-08T20:05:09.047Z,102316.72
2023-04-08T20:07:36.035Z,102317.81
2023-04-08T20:10:02.844Z,102318.91
2023-04-08T20:12:30.879Z,102325.34
2023-04-08T20:14:57.727Z,102317.25
2023-04-08T20:17:24.816Z,102326.69
2023-04-08T20:19:51.705Z,102333.03
2023-04-08T20:22:18.835Z,102329.97
2023-04-08T20:24:46.052Z,102330.06
2023-04-08T20:27:13.037Z,102335.66
2023-04-08T20:29:42.182Z,102334.81
2023-04-08T20:32:09.785Z,102345.16
2023-04-08T20:34:36.630Z,102336.50
2023-04-08T20:37:05.797Z,102338.44
2023-04-08T20:39:32.714Z,102338.44
2023-04-08T20:41:59.788Z,102342.34
2023-04-08T20:44:26.959Z,102338.44
2023-04-08T20:46:53.867Z,102341.22
2023-04-08T20:49:20.804Z,102337.34
2023-04-08T20:51:47.857Z,102338.44
2023-04-08T20:54:14.892Z,102345.16
2023-04-08T20:56:42.282Z,102332.84
2023-04-08T20:59:09.127Z,102334.81
2023-04-08T21:01:36.232Z,102337.59
2023-04-08T21:04:05.124Z,102334.81
2023-04-08T21:06:32.784Z,102341.50
2023-04-08T21:08:59.676Z,102336.78
2023-04-08T21:11:28.778Z,102334.81
2023-04-08T21:13:56.635Z,102341.22
2023-04-08T21:16:23.510Z,102338.44
2023-04-08T21:18:50.777Z,102344.28
2023-04-08T21:21:17.784Z,102339.56
2023-04-08T21:23:49.406Z,102345.97
2023-04-08T21:26:18.489Z,102339.56
2023-04-08T21:28:45.504Z,102338.72
2023-04-08T21:31:13.220Z,102339.56
2023-04-08T21:33:40.108Z,102341.50
2023-04-08T21:36:07.540Z,102340.38
2023-04-08T21:38:34.999Z,102334.81
2023-04-08T21:41:01.943Z,102336.16
2023-04-08T21:43:31.004Z,102337.59
2023-04-08T21:45:57.932Z,102330.59
2023-04-08T21:48:25.036Z,102328.88
2023-04-08T21:50:52.066Z,102329.97
2023-04-08T21:53:18.993Z,102331.66
2023-04-08T21:55:45.920Z,102329.97
2023-04-08T21:58:12.922Z,102323.28
2023-04-08T22:00:39.846Z,102329.16
2023-04-08T22:03:07.788Z,102333.03
2023-04-08T22:05:34.906Z,102333.38
2023-04-08T22:08:02.377Z,102337.25
2023-04-08T22:10:29.311Z,102332.41
2023-04-08T22:12:56.163Z,102336.91
2023-04-08T22:15:28.699Z,102337.53
2023-04-08T22:17:56.248Z,102328.31
2023-04-08T22:20:25.441Z,102334.97
2023-04-08T22:22:52.372Z,102329.38
2023-04-08T22:25:19.361Z,102327.19
2023-04-08T22:27:46.426Z,102331.09
2023-04-08T22:30:13.474Z,102328.31
2023-04-08T22:32:40.411Z,102326.84
2023-04-08T22:35:07.520Z,102326.59
2023-04-08T22:37:34.397Z,102324.31
2023-04-08T22:40:01.352Z,102328.53
2023-04-08T22:42:28.363Z,102331.31
2023-04-08T22:44:57.556Z,102330.25
2023-04-08T22:47:24.571Z,102326.59
2023-04-08T22:49:51.411Z,102319.06
2023-04-08T22:52:18.322Z,102319.56
2023-04-08T22:54:45.169Z,102316.28
2023-04-08T22:57:11.993Z,102305.38
2023-04-08T22:59:38.852Z,102310.94
2023-04-08T23:02:05.913Z,102309.00
2023-04-08T23:04:33.007Z,102309.84
2023-04-08T23:06:59.859Z,102310.94
2023-04-08T23:09:27.465Z,102307.06
2023-04-08T23:11:54.309Z,102304.50
2023-04-08T23:14:21.098Z,102305.38
2023-04-08T23:16:47.999Z,102308.38
2023-04-08T23:19:14.830Z,102309.50
2023-04-08T23:21:41.732Z,102305.59
2023-04-08T23:24:08.646Z,102305.88
2023-04-08T23:26:35.470Z,102304.50
2023-04-08T23:29:02.388Z,102303.66
2023-04-08T23:31:29.212Z,102299.19
2023-04-08T23:33:56.025Z,102297.50
2023-04-08T23:36:22.892Z,102293.63
2023-04-08T23:38:50.090Z,102292.75
2023-04-08T23:41:17.087Z,102292.41
2023-04-08T23:43:43.896Z,102296.41
2023-04-08T23:46:10.873Z,102300.28
2023-04-08T23:48:37.735Z,102291.91
2023-04-08T23:51:04.754Z,102293.84
2023-04-08T23:53:31.853Z,102293.50
2023-04-08T23:56:01.746Z,102283.19
2023-04-08T23:58:28.581Z,102291.31
